Terminal Aerodrome Forecast
Issued by NWS

Home | Current Version | Previous Version | Text Only | Print | Product List | Glossary On
Versions: 1 2 3 4 5 6 7 8 9 10 11 12 13 14 15 16 17 18 19 20 21 22 23 24 25 26 27 28 29 30 31 32 33 34 35 36
000
FTUS44 KLIX 300539
TAFHDC
TAF
KHDC 300539Z 3006/3106 15010KT P6SM BKN018 OVC026
      TEMPO 3007/3010 28018G30KT 2SM TSRA BKN015CB
     FM301200 18010KT 3SM -SHRA OVC020
     FM301800 21012KT P6SM SHRA VCTS OVC045CB
     FM310200 27005KT P6SM BKN060
     FM310500 30003KT P6SM SKC=

USA.gov is the U.S. government's official web portal to all federal, state and local government web resources and services.